logo
Rechercher aéroport 
image banner adimage banner adimage banner ad
image banner ad

SJDC - Fazenda Vale Verde

Situé à Pium, Brazil

ICAO - SJDC, IATA -

Données fournies par Airmate  

Information générale

Coordonnées: S9°57'40" W49°45'7"
Élévation : 580 feet MSL.
Variation magnétique : -21.043301593° East
Voir autres Aéroports à Tocatins

Données opérationnelles

Special qualification required
Heure actuelle UTC:
Heure actuelle locale:
Météo à : - ( 0 km )
METAR: TXKF 240655Z 08003KT 9999 FEW016 BKN064 BKN300 22/20 Q1017
Voir NOTAMs / SUP AIP / TFR affectant cet aéroport [VIEW]
Fréquences de communication: [VIEW]

Pistes:

Identifiant RWYQFULongueur (ft)Largeur (ft)SurfaceLDA (ft)
16328198GRAVEL
34328198GRAVEL

Coordonnées de l'aéroport

Adresse: Pium Brazil

Vue satellite de SJDC